< < Back
Terminal Aerodrome Forecast


Current Version              Previous Versions:   1  2  3  4  5  6  7  8  9  

Terminal Aerodrome Forecast

738
FTUS42 KFFC 260941 AAB
TAFCSG
TAF AMD
KCSG 260941Z 2610/2706 30007KT P6SM -RA SCT035 OVC070
     FM261200 29008KT P6SM SCT035 BKN100
     FM261500 28010KT P6SM SCT050
     FM262000 26006KT P6SM SCT250=

Latest METAR

815
SAUS70 KWBC 261100
MTRCSG
METAR KCSG 261051Z AUTO 30005KT 10SM CLR 07/03 A3006 RMK AO2 SLP179
T00720028


USA.gov is the U.S. government's official web portal to all federal, state and local government web resources and services.